sensor_id;sensor_type;location;lat;lon;timestamp;P1;durP1;ratioP1;P2;durP2;ratioP2
19109;SDS011;9687;50.836;12.060;2022-07-18T00:00:47;0.10;;;0.10;;
19109;SDS011;9687;50.836;12.060;2022-07-18T00:03:15;0.10;;;0.10;;
19109;SDS011;9687;50.836;12.060;2022-07-18T00:05:42;0.20;;;0.20;;
19109;SDS011;9687;50.836;12.060;2022-07-18T00:08:11;0.05;;;0.05;;
19109;SDS011;9687;50.836;12.060;2022-07-18T00:10:39;0.20;;;0.20;;
19109;SDS011;9687;50.836;12.060;2022-07-18T00:13:06;0.17;;;0.17;;
19109;SDS011;9687;50.836;12.060;2022-07-18T00:15:35;0.20;;;0.20;;
19109;SDS011;9687;50.836;12.060;2022-07-18T00:18:03;0.20;;;0.20;;
19109;SDS011;9687;50.836;12.060;2022-07-18T00:20:30;0.10;;;0.10;;
19109;SDS011;9687;50.836;12.060;2022-07-18T00:22:58;0.20;;;0.20;;
19109;SDS011;9687;50.836;12.060;2022-07-18T00:25:27;0.10;;;0.10;;
19109;SDS011;9687;50.836;12.060;2022-07-18T00:27:55;0.20;;;0.20;;
19109;SDS011;9687;50.836;12.060;2022-07-18T00:30:22;0.10;;;0.10;;
19109;SDS011;9687;50.836;12.060;2022-07-18T00:32:50;0.10;;;0.10;;
19109;SDS011;9687;50.836;12.060;2022-07-18T00:35:17;0.20;;;0.20;;
19109;SDS011;9687;50.836;12.060;2022-07-18T00:37:45;0.10;;;0.10;;
19109;SDS011;9687;50.836;12.060;2022-07-18T00:40:13;0.13;;;0.13;;
19109;SDS011;9687;50.836;12.060;2022-07-18T00:42:42;0.10;;;0.10;;
19109;SDS011;9687;50.836;12.060;2022-07-18T00:45:10;0.10;;;0.10;;
19109;SDS011;9687;50.836;12.060;2022-07-18T00:47:38;0.10;;;0.10;;
19109;SDS011;9687;50.836;12.060;2022-07-18T00:50:06;0.10;;;0.10;;
19109;SDS011;9687;50.836;12.060;2022-07-18T00:52:35;0.20;;;0.20;;
19109;SDS011;9687;50.836;12.060;2022-07-18T00:55:03;0.20;;;0.20;;
19109;SDS011;9687;50.836;12.060;2022-07-18T00:57:32;0.20;;;0.20;;
19109;SDS011;9687;50.836;12.060;2022-07-18T01:00:01;0.20;;;0.20;;
19109;SDS011;9687;50.836;12.060;2022-07-18T01:02:47;0.00;;;0.00;;
19109;SDS011;9687;50.836;12.060;2022-07-18T01:05:15;0.10;;;0.10;;
19109;SDS011;9687;50.836;12.060;2022-07-18T01:07:43;0.10;;;0.10;;
19109;SDS011;9687;50.836;12.060;2022-07-18T01:10:13;0.10;;;0.10;;
19109;SDS011;9687;50.836;12.060;2022-07-18T01:12:41;0.15;;;0.15;;
19109;SDS011;9687;50.836;12.060;2022-07-18T01:15:10;0.20;;;0.20;;
19109;SDS011;9687;50.836;12.060;2022-07-18T01:17:38;0.20;;;0.20;;
19109;SDS011;9687;50.836;12.060;2022-07-18T01:20:06;0.10;;;0.10;;
19109;SDS011;9687;50.836;12.060;2022-07-18T01:22:36;0.17;;;0.17;;
19109;SDS011;9687;50.836;12.060;2022-07-18T01:25:07;0.10;;;0.10;;
19109;SDS011;9687;50.836;12.060;2022-07-18T01:27:35;0.10;;;0.10;;
19109;SDS011;9687;50.836;12.060;2022-07-18T01:30:03;0.10;;;0.10;;
19109;SDS011;9687;50.836;12.060;2022-07-18T01:32:32;0.20;;;0.20;;
19109;SDS011;9687;50.836;12.060;2022-07-18T01:34:59;0.10;;;0.10;;
19109;SDS011;9687;50.836;12.060;2022-07-18T01:37:26;0.10;;;0.10;;
19109;SDS011;9687;50.836;12.060;2022-07-18T01:39:55;0.10;;;0.10;;
19109;SDS011;9687;50.836;12.060;2022-07-18T01:42:23;0.20;;;0.20;;
19109;SDS011;9687;50.836;12.060;2022-07-18T01:44:50;0.20;;;0.20;;
19109;SDS011;9687;50.836;12.060;2022-07-18T01:47:18;0.10;;;0.10;;
19109;SDS011;9687;50.836;12.060;2022-07-18T01:49:45;0.10;;;0.10;;
19109;SDS011;9687;50.836;12.060;2022-07-18T01:52:13;0.10;;;0.10;;
19109;SDS011;9687;50.836;12.060;2022-07-18T01:54:40;0.10;;;0.10;;
19109;SDS011;9687;50.836;12.060;2022-07-18T01:57:09;0.20;;;0.20;;
19109;SDS011;9687;50.836;12.060;2022-07-18T01:59:37;0.10;;;0.10;;
19109;SDS011;9687;50.836;12.060;2022-07-18T02:02:05;0.10;;;0.10;;
19109;SDS011;9687;50.836;12.060;2022-07-18T02:04:32;0.10;;;0.10;;
19109;SDS011;9687;50.836;12.060;2022-07-18T02:07:17;0.10;;;0.10;;
19109;SDS011;9687;50.836;12.060;2022-07-18T02:09:44;0.20;;;0.20;;
19109;SDS011;9687;50.836;12.060;2022-07-18T02:12:13;0.15;;;0.15;;
19109;SDS011;9687;50.836;12.060;2022-07-18T02:14:41;0.10;;;0.10;;
19109;SDS011;9687;50.836;12.060;2022-07-18T02:17:08;0.10;;;0.10;;
19109;SDS011;9687;50.836;12.060;2022-07-18T02:19:36;0.10;;;0.10;;
19109;SDS011;9687;50.836;12.060;2022-07-18T02:22:04;0.10;;;0.10;;
19109;SDS011;9687;50.836;12.060;2022-07-18T02:24:31;0.10;;;0.10;;
19109;SDS011;9687;50.836;12.060;2022-07-18T02:26:59;0.10;;;0.10;;
19109;SDS011;9687;50.836;12.060;2022-07-18T02:29:28;0.20;;;0.20;;
19109;SDS011;9687;50.836;12.060;2022-07-18T02:31:56;0.10;;;0.10;;
19109;SDS011;9687;50.836;12.060;2022-07-18T02:34:23;0.20;;;0.20;;
19109;SDS011;9687;50.836;12.060;2022-07-18T02:36:51;0.20;;;0.20;;
19109;SDS011;9687;50.836;12.060;2022-07-18T02:39:18;0.10;;;0.10;;
19109;SDS011;9687;50.836;12.060;2022-07-18T02:41:46;0.20;;;0.20;;
19109;SDS011;9687;50.836;12.060;2022-07-18T02:44:14;0.10;;;0.10;;
19109;SDS011;9687;50.836;12.060;2022-07-18T02:46:43;0.10;;;0.10;;
19109;SDS011;9687;50.836;12.060;2022-07-18T02:49:11;0.10;;;0.10;;
19109;SDS011;9687;50.836;12.060;2022-07-18T02:51:52;0.20;;;0.20;;
19109;SDS011;9687;50.836;12.060;2022-07-18T02:54:21;0.10;;;0.10;;
19109;SDS011;9687;50.836;12.060;2022-07-18T02:56:50;0.13;;;0.13;;
19109;SDS011;9687;50.836;12.060;2022-07-18T02:59:18;0.10;;;0.10;;
19109;SDS011;9687;50.836;12.060;2022-07-18T03:01:47;0.13;;;0.13;;
19109;SDS011;9687;50.836;12.060;2022-07-18T03:04:15;0.10;;;0.10;;
19109;SDS011;9687;50.836;12.060;2022-07-18T03:06:43;0.17;;;0.17;;
19109;SDS011;9687;50.836;12.060;2022-07-18T03:09:12;0.10;;;0.10;;
19109;SDS011;9687;50.836;12.060;2022-07-18T03:11:40;0.10;;;0.10;;
19109;SDS011;9687;50.836;12.060;2022-07-18T03:14:07;0.10;;;0.10;;
19109;SDS011;9687;50.836;12.060;2022-07-18T03:16:35;0.10;;;0.10;;
19109;SDS011;9687;50.836;12.060;2022-07-18T03:19:04;0.10;;;0.10;;
19109;SDS011;9687;50.836;12.060;2022-07-18T03:21:31;0.10;;;0.10;;
19109;SDS011;9687;50.836;12.060;2022-07-18T03:23:59;0.10;;;0.10;;
19109;SDS011;9687;50.836;12.060;2022-07-18T03:26:26;0.10;;;0.10;;
19109;SDS011;9687;50.836;12.060;2022-07-18T03:28:54;0.20;;;0.20;;
19109;SDS011;9687;50.836;12.060;2022-07-18T03:31:22;0.10;;;0.10;;
19109;SDS011;9687;50.836;12.060;2022-07-18T03:33:51;0.10;;;0.10;;
19109;SDS011;9687;50.836;12.060;2022-07-18T03:36:20;0.15;;;0.15;;
19109;SDS011;9687;50.836;12.060;2022-07-18T03:38:47;0.10;;;0.10;;
19109;SDS011;9687;50.836;12.060;2022-07-18T03:41:15;0.10;;;0.10;;
19109;SDS011;9687;50.836;12.060;2022-07-18T03:43:43;0.10;;;0.10;;
19109;SDS011;9687;50.836;12.060;2022-07-18T03:46:10;0.10;;;0.10;;
19109;SDS011;9687;50.836;12.060;2022-07-18T03:48:38;0.10;;;0.10;;
19109;SDS011;9687;50.836;12.060;2022-07-18T03:51:05;0.10;;;0.10;;
19109;SDS011;9687;50.836;12.060;2022-07-18T03:53:34;0.10;;;0.10;;
19109;SDS011;9687;50.836;12.060;2022-07-18T03:56:02;0.20;;;0.20;;
19109;SDS011;9687;50.836;12.060;2022-07-18T03:58:30;0.20;;;0.20;;
19109;SDS011;9687;50.836;12.060;2022-07-18T04:00:58;0.20;;;0.20;;
19109;SDS011;9687;50.836;12.060;2022-07-18T04:03:25;0.10;;;0.10;;
19109;SDS011;9687;50.836;12.060;2022-07-18T04:05:53;0.20;;;0.20;;
19109;SDS011;9687;50.836;12.060;2022-07-18T04:08:21;0.10;;;0.10;;
19109;SDS011;9687;50.836;12.060;2022-07-18T04:10:50;0.10;;;0.10;;
19109;SDS011;9687;50.836;12.060;2022-07-18T04:13:18;0.20;;;0.20;;
19109;SDS011;9687;50.836;12.060;2022-07-18T04:15:45;0.20;;;0.20;;
19109;SDS011;9687;50.836;12.060;2022-07-18T04:18:13;0.20;;;0.20;;
19109;SDS011;9687;50.836;12.060;2022-07-18T04:20:41;0.15;;;0.15;;
19109;SDS011;9687;50.836;12.060;2022-07-18T04:23:09;0.20;;;0.20;;
19109;SDS011;9687;50.836;12.060;2022-07-18T04:25:37;0.10;;;0.10;;
19109;SDS011;9687;50.836;12.060;2022-07-18T04:28:09;0.10;;;0.10;;
19109;SDS011;9687;50.836;12.060;2022-07-18T04:30:39;0.15;;;0.15;;
19109;SDS011;9687;50.836;12.060;2022-07-18T04:33:08;0.20;;;0.20;;
19109;SDS011;9687;50.836;12.060;2022-07-18T04:35:37;0.10;;;0.10;;
19109;SDS011;9687;50.836;12.060;2022-07-18T04:38:05;0.17;;;0.17;;
19109;SDS011;9687;50.836;12.060;2022-07-18T04:40:34;0.20;;;0.20;;
19109;SDS011;9687;50.836;12.060;2022-07-18T04:43:03;0.20;;;0.20;;
19109;SDS011;9687;50.836;12.060;2022-07-18T04:45:32;0.10;;;0.10;;
19109;SDS011;9687;50.836;12.060;2022-07-18T04:48:03;0.10;;;0.10;;
19109;SDS011;9687;50.836;12.060;2022-07-18T04:50:31;0.10;;;0.10;;
19109;SDS011;9687;50.836;12.060;2022-07-18T04:52:59;0.20;;;0.20;;
19109;SDS011;9687;50.836;12.060;2022-07-18T04:55:27;0.10;;;0.10;;
19109;SDS011;9687;50.836;12.060;2022-07-18T04:57:55;0.20;;;0.20;;
19109;SDS011;9687;50.836;12.060;2022-07-18T05:00:24;0.20;;;0.20;;
19109;SDS011;9687;50.836;12.060;2022-07-18T05:02:57;0.20;;;0.20;;
19109;SDS011;9687;50.836;12.060;2022-07-18T05:05:27;0.20;;;0.20;;
19109;SDS011;9687;50.836;12.060;2022-07-18T05:07:56;0.10;;;0.10;;
19109;SDS011;9687;50.836;12.060;2022-07-18T05:10:24;0.20;;;0.20;;
19109;SDS011;9687;50.836;12.060;2022-07-18T05:12:52;0.10;;;0.10;;
19109;SDS011;9687;50.836;12.060;2022-07-18T05:15:21;0.10;;;0.10;;
19109;SDS011;9687;50.836;12.060;2022-07-18T05:17:49;0.20;;;0.20;;
19109;SDS011;9687;50.836;12.060;2022-07-18T05:20:19;0.17;;;0.17;;
19109;SDS011;9687;50.836;12.060;2022-07-18T05:22:48;0.10;;;0.10;;
19109;SDS011;9687;50.836;12.060;2022-07-18T05:25:17;0.15;;;0.15;;
19109;SDS011;9687;50.836;12.060;2022-07-18T05:27:45;0.20;;;0.20;;
19109;SDS011;9687;50.836;12.060;2022-07-18T05:30:13;0.17;;;0.17;;
19109;SDS011;9687;50.836;12.060;2022-07-18T05:32:41;0.20;;;0.20;;
19109;SDS011;9687;50.836;12.060;2022-07-18T05:35:10;0.17;;;0.17;;
19109;SDS011;9687;50.836;12.060;2022-07-18T05:37:41;0.17;;;0.17;;
19109;SDS011;9687;50.836;12.060;2022-07-18T05:40:09;0.20;;;0.20;;
19109;SDS011;9687;50.836;12.060;2022-07-18T05:42:38;0.10;;;0.10;;
19109;SDS011;9687;50.836;12.060;2022-07-18T05:45:06;0.20;;;0.20;;
19109;SDS011;9687;50.836;12.060;2022-07-18T05:47:35;0.20;;;0.20;;
19109;SDS011;9687;50.836;12.060;2022-07-18T05:50:03;0.20;;;0.20;;
19109;SDS011;9687;50.836;12.060;2022-07-18T05:52:32;0.17;;;0.17;;
19109;SDS011;9687;50.836;12.060;2022-07-18T05:55:01;0.20;;;0.20;;
19109;SDS011;9687;50.836;12.060;2022-07-18T05:57:28;0.20;;;0.20;;
19109;SDS011;9687;50.836;12.060;2022-07-18T05:59:56;0.20;;;0.20;;
19109;SDS011;9687;50.836;12.060;2022-07-18T06:02:24;0.20;;;0.20;;
19109;SDS011;9687;50.836;12.060;2022-07-18T06:04:51;0.20;;;0.20;;
19109;SDS011;9687;50.836;12.060;2022-07-18T06:07:19;0.10;;;0.10;;
19109;SDS011;9687;50.836;12.060;2022-07-18T06:09:46;0.20;;;0.20;;
19109;SDS011;9687;50.836;12.060;2022-07-18T06:12:15;0.10;;;0.10;;
19109;SDS011;9687;50.836;12.060;2022-07-18T06:14:43;0.10;;;0.10;;
19109;SDS011;9687;50.836;12.060;2022-07-18T06:17:11;0.20;;;0.20;;
19109;SDS011;9687;50.836;12.060;2022-07-18T06:19:39;0.10;;;0.10;;
19109;SDS011;9687;50.836;12.060;2022-07-18T06:22:07;0.20;;;0.20;;
19109;SDS011;9687;50.836;12.060;2022-07-18T06:24:35;0.10;;;0.10;;
19109;SDS011;9687;50.836;12.060;2022-07-18T06:27:02;0.20;;;0.20;;
19109;SDS011;9687;50.836;12.060;2022-07-18T06:29:31;0.10;;;0.10;;
19109;SDS011;9687;50.836;12.060;2022-07-18T06:31:59;0.15;;;0.15;;
19109;SDS011;9687;50.836;12.060;2022-07-18T06:34:27;0.20;;;0.20;;
19109;SDS011;9687;50.836;12.060;2022-07-18T06:36:54;0.20;;;0.20;;
19109;SDS011;9687;50.836;12.060;2022-07-18T06:39:22;0.20;;;0.20;;
19109;SDS011;9687;50.836;12.060;2022-07-18T06:41:49;0.20;;;0.20;;
19109;SDS011;9687;50.836;12.060;2022-07-18T06:44:17;0.20;;;0.20;;
19109;SDS011;9687;50.836;12.060;2022-07-18T06:46:51;0.10;;;0.10;;
19109;SDS011;9687;50.836;12.060;2022-07-18T06:49:20;0.20;;;0.20;;
19109;SDS011;9687;50.836;12.060;2022-07-18T06:51:48;0.10;;;0.10;;
19109;SDS011;9687;50.836;12.060;2022-07-18T06:54:16;0.20;;;0.20;;
19109;SDS011;9687;50.836;12.060;2022-07-18T06:56:52;0.10;;;0.10;;
19109;SDS011;9687;50.836;12.060;2022-07-18T06:59:22;0.10;;;0.10;;
19109;SDS011;9687;50.836;12.060;2022-07-18T07:01:51;0.20;;;0.20;;
19109;SDS011;9687;50.836;12.060;2022-07-18T07:04:18;0.10;;;0.10;;
19109;SDS011;9687;50.836;12.060;2022-07-18T07:06:46;0.10;;;0.10;;
19109;SDS011;9687;50.836;12.060;2022-07-18T07:09:14;0.10;;;0.10;;
19109;SDS011;9687;50.836;12.060;2022-07-18T07:11:41;0.15;;;0.15;;
19109;SDS011;9687;50.836;12.060;2022-07-18T07:14:09;0.15;;;0.15;;
19109;SDS011;9687;50.836;12.060;2022-07-18T07:16:36;0.10;;;0.10;;
19109;SDS011;9687;50.836;12.060;2022-07-18T07:19:05;0.10;;;0.10;;
19109;SDS011;9687;50.836;12.060;2022-07-18T07:21:33;0.10;;;0.10;;
19109;SDS011;9687;50.836;12.060;2022-07-18T07:24:00;0.10;;;0.10;;
19109;SDS011;9687;50.836;12.060;2022-07-18T07:26:28;0.10;;;0.10;;
19109;SDS011;9687;50.836;12.060;2022-07-18T07:28:55;0.10;;;0.10;;
19109;SDS011;9687;50.836;12.060;2022-07-18T07:31:23;0.10;;;0.10;;
19109;SDS011;9687;50.836;12.060;2022-07-18T07:33:51;0.10;;;0.10;;
19109;SDS011;9687;50.836;12.060;2022-07-18T07:36:20;0.10;;;0.10;;
19109;SDS011;9687;50.836;12.060;2022-07-18T07:38:48;0.10;;;0.10;;
19109;SDS011;9687;50.836;12.060;2022-07-18T07:41:16;0.10;;;0.10;;
19109;SDS011;9687;50.836;12.060;2022-07-18T07:43:43;0.10;;;0.10;;
19109;SDS011;9687;50.836;12.060;2022-07-18T07:46:11;0.10;;;0.10;;
19109;SDS011;9687;50.836;12.060;2022-07-18T07:48:39;0.00;;;0.00;;
19109;SDS011;9687;50.836;12.060;2022-07-18T07:51:06;0.10;;;0.10;;
19109;SDS011;9687;50.836;12.060;2022-07-18T07:53:35;0.10;;;0.10;;
19109;SDS011;9687;50.836;12.060;2022-07-18T07:56:03;0.03;;;0.03;;
19109;SDS011;9687;50.836;12.060;2022-07-18T07:58:31;0.10;;;0.10;;
19109;SDS011;9687;50.836;12.060;2022-07-18T08:00:59;0.10;;;0.10;;
19109;SDS011;9687;50.836;12.060;2022-07-18T08:03:29;0.05;;;0.05;;
19109;SDS011;9687;50.836;12.060;2022-07-18T08:05:57;0.10;;;0.10;;
19109;SDS011;9687;50.836;12.060;2022-07-18T08:08:25;0.10;;;0.10;;
19109;SDS011;9687;50.836;12.060;2022-07-18T08:10:54;0.10;;;0.10;;
19109;SDS011;9687;50.836;12.060;2022-07-18T08:13:22;0.10;;;0.10;;
19109;SDS011;9687;50.836;12.060;2022-07-18T08:15:51;0.10;;;0.10;;
19109;SDS011;9687;50.836;12.060;2022-07-18T08:18:20;0.20;;;0.20;;
19109;SDS011;9687;50.836;12.060;2022-07-18T08:20:47;0.10;;;0.10;;
19109;SDS011;9687;50.836;12.060;2022-07-18T08:23:16;0.10;;;0.10;;
19109;SDS011;9687;50.836;12.060;2022-07-18T08:25:44;0.10;;;0.10;;
19109;SDS011;9687;50.836;12.060;2022-07-18T08:28:14;0.10;;;0.10;;
19109;SDS011;9687;50.836;12.060;2022-07-18T08:30:42;0.17;;;0.17;;
19109;SDS011;9687;50.836;12.060;2022-07-18T08:33:10;0.10;;;0.10;;
19109;SDS011;9687;50.836;12.060;2022-07-18T08:35:38;0.20;;;0.20;;
19109;SDS011;9687;50.836;12.060;2022-07-18T08:38:06;0.10;;;0.10;;
19109;SDS011;9687;50.836;12.060;2022-07-18T08:40:34;0.13;;;0.13;;
19109;SDS011;9687;50.836;12.060;2022-07-18T08:43:11;0.10;;;0.10;;
19109;SDS011;9687;50.836;12.060;2022-07-18T08:45:47;0.20;;;0.20;;
19109;SDS011;9687;50.836;12.060;2022-07-18T08:48:18;0.20;;;0.20;;
19109;SDS011;9687;50.836;12.060;2022-07-18T08:50:47;0.20;;;0.20;;
19109;SDS011;9687;50.836;12.060;2022-07-18T08:53:17;0.10;;;0.10;;
19109;SDS011;9687;50.836;12.060;2022-07-18T08:55:47;0.20;;;0.20;;
19109;SDS011;9687;50.836;12.060;2022-07-18T08:58:30;0.20;;;0.20;;
19109;SDS011;9687;50.836;12.060;2022-07-18T09:01:00;0.10;;;0.10;;
19109;SDS011;9687;50.836;12.060;2022-07-18T09:03:29;0.10;;;0.10;;
19109;SDS011;9687;50.836;12.060;2022-07-18T09:06:05;0.10;;;0.10;;
19109;SDS011;9687;50.836;12.060;2022-07-18T09:08:38;0.20;;;0.20;;
19109;SDS011;9687;50.836;12.060;2022-07-18T09:11:26;0.20;;;0.20;;
19109;SDS011;9687;50.836;12.060;2022-07-18T09:13:55;0.20;;;0.20;;
19109;SDS011;9687;50.836;12.060;2022-07-18T09:16:23;0.10;;;0.10;;
19109;SDS011;9687;50.836;12.060;2022-07-18T09:18:53;0.10;;;0.10;;
19109;SDS011;9687;50.836;12.060;2022-07-18T09:21:26;0.10;;;0.10;;
19109;SDS011;9687;50.836;12.060;2022-07-18T09:23:55;0.10;;;0.10;;
19109;SDS011;9687;50.836;12.060;2022-07-18T09:26:39;0.20;;;0.20;;
19109;SDS011;9687;50.836;12.060;2022-07-18T09:29:10;0.10;;;0.10;;
19109;SDS011;9687;50.836;12.060;2022-07-18T09:31:45;0.20;;;0.20;;
19109;SDS011;9687;50.836;12.060;2022-07-18T09:34:31;0.17;;;0.17;;
19109;SDS011;9687;50.836;12.060;2022-07-18T09:37:01;0.20;;;0.20;;
19109;SDS011;9687;50.836;12.060;2022-07-18T09:39:29;0.38;;;0.38;;
19109;SDS011;9687;50.836;12.060;2022-07-18T09:42:13;0.20;;;0.20;;
19109;SDS011;9687;50.836;12.060;2022-07-18T09:44:45;0.20;;;0.20;;
19109;SDS011;9687;50.836;12.060;2022-07-18T09:47:26;0.20;;;0.20;;
19109;SDS011;9687;50.836;12.060;2022-07-18T09:49:54;0.20;;;0.20;;
19109;SDS011;9687;50.836;12.060;2022-07-18T09:52:22;0.20;;;0.20;;
19109;SDS011;9687;50.836;12.060;2022-07-18T09:54:50;0.20;;;0.20;;
19109;SDS011;9687;50.836;12.060;2022-07-18T09:57:29;0.10;;;0.10;;
19109;SDS011;9687;50.836;12.060;2022-07-18T09:59:59;0.10;;;0.10;;
19109;SDS011;9687;50.836;12.060;2022-07-18T10:02:28;0.15;;;0.15;;
19109;SDS011;9687;50.836;12.060;2022-07-18T10:05:05;0.10;;;0.10;;
19109;SDS011;9687;50.836;12.060;2022-07-18T10:07:35;0.13;;;0.13;;
19109;SDS011;9687;50.836;12.060;2022-07-18T10:10:09;0.15;;;0.15;;
19109;SDS011;9687;50.836;12.060;2022-07-18T10:12:59;0.10;;;0.10;;
19109;SDS011;9687;50.836;12.060;2022-07-18T10:15:31;0.20;;;0.20;;
19109;SDS011;9687;50.836;12.060;2022-07-18T10:18:01;0.10;;;0.10;;
19109;SDS011;9687;50.836;12.060;2022-07-18T10:20:31;0.20;;;0.20;;
19109;SDS011;9687;50.836;12.060;2022-07-18T10:23:01;0.10;;;0.10;;
19109;SDS011;9687;50.836;12.060;2022-07-18T10:25:35;0.15;;;0.15;;
19109;SDS011;9687;50.836;12.060;2022-07-18T10:28:05;0.20;;;0.20;;
19109;SDS011;9687;50.836;12.060;2022-07-18T10:30:36;0.10;;;0.10;;
19109;SDS011;9687;50.836;12.060;2022-07-18T10:36:05;0.15;;;0.15;;
19109;SDS011;9687;50.836;12.060;2022-07-18T10:38:34;0.10;;;0.10;;
19109;SDS011;9687;50.836;12.060;2022-07-18T10:41:06;0.10;;;0.10;;
19109;SDS011;9687;50.836;12.060;2022-07-18T10:43:42;0.10;;;0.10;;
19109;SDS011;9687;50.836;12.060;2022-07-18T10:46:12;0.10;;;0.10;;
19109;SDS011;9687;50.836;12.060;2022-07-18T10:48:50;0.20;;;0.20;;
19109;SDS011;9687;50.836;12.060;2022-07-18T10:51:30;0.10;;;0.10;;
19109;SDS011;9687;50.836;12.060;2022-07-18T10:54:11;0.15;;;0.15;;
19109;SDS011;9687;50.836;12.060;2022-07-18T10:59:33;0.20;;;0.20;;
19109;SDS011;9687;50.836;12.060;2022-07-18T11:02:03;0.20;;;0.20;;
19109;SDS011;9687;50.836;12.060;2022-07-18T11:04:34;0.20;;;0.20;;
19109;SDS011;9687;50.836;12.060;2022-07-18T11:07:04;0.20;;;0.20;;
19109;SDS011;9687;50.836;12.060;2022-07-18T11:09:36;0.20;;;0.20;;
19109;SDS011;9687;50.836;12.060;2022-07-18T11:12:17;0.20;;;0.20;;
19109;SDS011;9687;50.836;12.060;2022-07-18T11:15:06;0.20;;;0.20;;
19109;SDS011;9687;50.836;12.060;2022-07-18T11:20:35;0.20;;;0.20;;
19109;SDS011;9687;50.836;12.060;2022-07-18T11:23:19;0.20;;;0.20;;
19109;SDS011;9687;50.836;12.060;2022-07-18T11:25:49;0.20;;;0.20;;
19109;SDS011;9687;50.836;12.060;2022-07-18T11:28:17;0.20;;;0.20;;
19109;SDS011;9687;50.836;12.060;2022-07-18T11:31:00;0.20;;;0.20;;
19109;SDS011;9687;50.836;12.060;2022-07-18T11:33:36;0.10;;;0.10;;
19109;SDS011;9687;50.836;12.060;2022-07-18T11:36:06;0.20;;;0.20;;
19109;SDS011;9687;50.836;12.060;2022-07-18T11:38:36;0.15;;;0.15;;
19109;SDS011;9687;50.836;12.060;2022-07-18T11:41:04;0.20;;;0.20;;
19109;SDS011;9687;50.836;12.060;2022-07-18T11:43:32;0.10;;;0.10;;
19109;SDS011;9687;50.836;12.060;2022-07-18T11:46:01;0.15;;;0.15;;
19109;SDS011;9687;50.836;12.060;2022-07-18T11:48:34;0.20;;;0.20;;
19109;SDS011;9687;50.836;12.060;2022-07-18T11:51:08;0.17;;;0.17;;
19109;SDS011;9687;50.836;12.060;2022-07-18T11:53:41;0.30;;;0.30;;
19109;SDS011;9687;50.836;12.060;2022-07-18T11:56:09;0.20;;;0.20;;
19109;SDS011;9687;50.836;12.060;2022-07-18T11:58:38;0.10;;;0.10;;
19109;SDS011;9687;50.836;12.060;2022-07-18T12:01:07;0.10;;;0.10;;
19109;SDS011;9687;50.836;12.060;2022-07-18T12:03:36;0.10;;;0.10;;
19109;SDS011;9687;50.836;12.060;2022-07-18T12:06:10;0.10;;;0.10;;
19109;SDS011;9687;50.836;12.060;2022-07-18T12:08:39;0.10;;;0.10;;
19109;SDS011;9687;50.836;12.060;2022-07-18T12:11:10;0.10;;;0.10;;
19109;SDS011;9687;50.836;12.060;2022-07-18T12:13:46;0.10;;;0.10;;
19109;SDS011;9687;50.836;12.060;2022-07-18T12:16:26;0.10;;;0.10;;
19109;SDS011;9687;50.836;12.060;2022-07-18T12:18:57;0.00;;;0.00;;
19109;SDS011;9687;50.836;12.060;2022-07-18T12:21:45;0.10;;;0.10;;
19109;SDS011;9687;50.836;12.060;2022-07-18T12:24:20;0.15;;;0.15;;
19109;SDS011;9687;50.836;12.060;2022-07-18T12:29:59;0.00;;;0.00;;
19109;SDS011;9687;50.836;12.060;2022-07-18T12:32:45;0.00;;;0.00;;
19109;SDS011;9687;50.836;12.060;2022-07-18T12:35:20;0.00;;;0.00;;
19109;SDS011;9687;50.836;12.060;2022-07-18T12:37:56;0.00;;;0.00;;
19109;SDS011;9687;50.836;12.060;2022-07-18T12:40:26;0.00;;;0.00;;
19109;SDS011;9687;50.836;12.060;2022-07-18T12:43:07;0.00;;;0.00;;
19109;SDS011;9687;50.836;12.060;2022-07-18T12:45:37;0.00;;;0.00;;
19109;SDS011;9687;50.836;12.060;2022-07-18T12:48:07;0.00;;;0.00;;
19109;SDS011;9687;50.836;12.060;2022-07-18T12:50:37;0.00;;;0.00;;
19109;SDS011;9687;50.836;12.060;2022-07-18T12:53:07;0.00;;;0.00;;
19109;SDS011;9687;50.836;12.060;2022-07-18T12:55:35;0.00;;;0.00;;
19109;SDS011;9687;50.836;12.060;2022-07-18T12:58:03;0.00;;;0.00;;
19109;SDS011;9687;50.836;12.060;2022-07-18T13:00:32;0.00;;;0.00;;
19109;SDS011;9687;50.836;12.060;2022-07-18T13:03:00;0.00;;;0.00;;
19109;SDS011;9687;50.836;12.060;2022-07-18T13:05:29;0.00;;;0.00;;
19109;SDS011;9687;50.836;12.060;2022-07-18T13:07:58;0.00;;;0.00;;
19109;SDS011;9687;50.836;12.060;2022-07-18T13:10:26;0.00;;;0.00;;
19109;SDS011;9687;50.836;12.060;2022-07-18T13:12:53;0.00;;;0.00;;
19109;SDS011;9687;50.836;12.060;2022-07-18T13:15:21;0.00;;;0.00;;
19109;SDS011;9687;50.836;12.060;2022-07-18T13:17:49;0.00;;;0.00;;
19109;SDS011;9687;50.836;12.060;2022-07-18T13:20:17;0.00;;;0.00;;
19109;SDS011;9687;50.836;12.060;2022-07-18T13:22:45;0.00;;;0.00;;
19109;SDS011;9687;50.836;12.060;2022-07-18T13:25:14;0.00;;;0.00;;
19109;SDS011;9687;50.836;12.060;2022-07-18T13:27:42;0.00;;;0.00;;
19109;SDS011;9687;50.836;12.060;2022-07-18T13:30:11;0.00;;;0.00;;
19109;SDS011;9687;50.836;12.060;2022-07-18T13:32:40;0.00;;;0.00;;
19109;SDS011;9687;50.836;12.060;2022-07-18T13:35:12;0.00;;;0.00;;
19109;SDS011;9687;50.836;12.060;2022-07-18T13:37:41;0.00;;;0.00;;
19109;SDS011;9687;50.836;12.060;2022-07-18T13:40:10;0.00;;;0.00;;
19109;SDS011;9687;50.836;12.060;2022-07-18T13:42:45;0.00;;;0.00;;
19109;SDS011;9687;50.836;12.060;2022-07-18T13:45:18;0.00;;;0.00;;
19109;SDS011;9687;50.836;12.060;2022-07-18T13:47:50;0.00;;;0.00;;
19109;SDS011;9687;50.836;12.060;2022-07-18T13:50:20;0.00;;;0.00;;
19109;SDS011;9687;50.836;12.060;2022-07-18T13:52:49;0.00;;;0.00;;
19109;SDS011;9687;50.836;12.060;2022-07-18T13:55:21;0.00;;;0.00;;
19109;SDS011;9687;50.836;12.060;2022-07-18T13:57:53;0.00;;;0.00;;
19109;SDS011;9687;50.836;12.060;2022-07-18T14:00:22;0.00;;;0.00;;
19109;SDS011;9687;50.836;12.060;2022-07-18T14:03:13;0.00;;;0.00;;
19109;SDS011;9687;50.836;12.060;2022-07-18T14:05:43;0.00;;;0.00;;
19109;SDS011;9687;50.836;12.060;2022-07-18T14:08:12;0.00;;;0.00;;
19109;SDS011;9687;50.836;12.060;2022-07-18T14:10:41;0.00;;;0.00;;
19109;SDS011;9687;50.836;12.060;2022-07-18T14:13:12;0.00;;;0.00;;
19109;SDS011;9687;50.836;12.060;2022-07-18T14:15:40;0.00;;;0.00;;
19109;SDS011;9687;50.836;12.060;2022-07-18T14:18:09;0.10;;;0.10;;
19109;SDS011;9687;50.836;12.060;2022-07-18T14:20:38;0.05;;;0.05;;
19109;SDS011;9687;50.836;12.060;2022-07-18T14:23:09;0.00;;;0.00;;
19109;SDS011;9687;50.836;12.060;2022-07-18T14:25:37;0.00;;;0.00;;
19109;SDS011;9687;50.836;12.060;2022-07-18T14:28:04;0.00;;;0.00;;
19109;SDS011;9687;50.836;12.060;2022-07-18T14:30:35;0.00;;;0.00;;
19109;SDS011;9687;50.836;12.060;2022-07-18T14:33:06;0.00;;;0.00;;
19109;SDS011;9687;50.836;12.060;2022-07-18T14:35:35;0.00;;;0.00;;
19109;SDS011;9687;50.836;12.060;2022-07-18T14:38:03;0.00;;;0.00;;
19109;SDS011;9687;50.836;12.060;2022-07-18T14:40:32;0.00;;;0.00;;
19109;SDS011;9687;50.836;12.060;2022-07-18T14:43:01;0.00;;;0.00;;
19109;SDS011;9687;50.836;12.060;2022-07-18T14:45:30;0.00;;;0.00;;
19109;SDS011;9687;50.836;12.060;2022-07-18T14:48:01;0.00;;;0.00;;
19109;SDS011;9687;50.836;12.060;2022-07-18T14:50:29;0.10;;;0.10;;
19109;SDS011;9687;50.836;12.060;2022-07-18T14:52:59;0.00;;;0.00;;
19109;SDS011;9687;50.836;12.060;2022-07-18T14:55:29;0.00;;;0.00;;
19109;SDS011;9687;50.836;12.060;2022-07-18T14:57:58;0.00;;;0.00;;
19109;SDS011;9687;50.836;12.060;2022-07-18T15:00:28;0.00;;;0.00;;
19109;SDS011;9687;50.836;12.060;2022-07-18T15:02:57;0.10;;;0.10;;
19109;SDS011;9687;50.836;12.060;2022-07-18T15:05:30;0.00;;;0.00;;
19109;SDS011;9687;50.836;12.060;2022-07-18T15:15:23;0.00;;;0.00;;
19109;SDS011;9687;50.836;12.060;2022-07-18T15:18:29;0.00;;;0.00;;
19109;SDS011;9687;50.836;12.060;2022-07-18T15:21:01;0.00;;;0.00;;
19109;SDS011;9687;50.836;12.060;2022-07-18T15:23:38;0.00;;;0.00;;